sensor_id;sensor_type;location;lat;lon;timestamp;P1;durP1;ratioP1;P2;durP2;ratioP2
62037;SDS011;47991;42.974;12.082;2023-09-19T00:00:35;11.20;;;4.80;;
62037;SDS011;47991;42.974;12.082;2023-09-19T00:03:22;10.70;;;5.10;;
62037;SDS011;47991;42.974;12.082;2023-09-19T00:05:49;12.40;;;5.60;;
62037;SDS011;47991;42.974;12.082;2023-09-19T00:08:16;11.40;;;5.50;;
62037;SDS011;47991;42.974;12.082;2023-09-19T00:10:43;10.60;;;5.10;;
62037;SDS011;47991;42.974;12.082;2023-09-19T00:13:10;10.40;;;5.00;;
62037;SDS011;47991;42.974;12.082;2023-09-19T00:15:41;12.50;;;5.00;;
62037;SDS011;47991;42.974;12.082;2023-09-19T00:18:14;12.30;;;5.50;;
62037;SDS011;47991;42.974;12.082;2023-09-19T00:20:43;11.50;;;5.10;;
62037;SDS011;47991;42.974;12.082;2023-09-19T00:23:14;12.30;;;5.10;;
62037;SDS011;47991;42.974;12.082;2023-09-19T00:25:41;17.00;;;4.80;;
62037;SDS011;47991;42.974;12.082;2023-09-19T00:28:09;13.40;;;5.60;;
62037;SDS011;47991;42.974;12.082;2023-09-19T00:30:36;9.90;;;5.00;;
62037;SDS011;47991;42.974;12.082;2023-09-19T00:33:05;13.70;;;4.90;;
62037;SDS011;47991;42.974;12.082;2023-09-19T00:35:34;12.30;;;5.30;;
62037;SDS011;47991;42.974;12.082;2023-09-19T00:38:01;10.30;;;5.50;;
62037;SDS011;47991;42.974;12.082;2023-09-19T00:40:28;12.60;;;5.00;;
62037;SDS011;47991;42.974;12.082;2023-09-19T00:42:59;13.20;;;5.70;;
62037;SDS011;47991;42.974;12.082;2023-09-19T00:45:26;10.30;;;5.20;;
62037;SDS011;47991;42.974;12.082;2023-09-19T00:47:54;11.70;;;5.20;;
62037;SDS011;47991;42.974;12.082;2023-09-19T00:50:23;11.80;;;5.20;;
62037;SDS011;47991;42.974;12.082;2023-09-19T00:52:53;11.70;;;5.10;;
62037;SDS011;47991;42.974;12.082;2023-09-19T00:55:24;10.70;;;5.40;;
62037;SDS011;47991;42.974;12.082;2023-09-19T00:57:52;12.00;;;5.50;;
62037;SDS011;47991;42.974;12.082;2023-09-19T01:00:19;10.70;;;5.20;;
62037;SDS011;47991;42.974;12.082;2023-09-19T01:02:47;12.90;;;5.10;;
62037;SDS011;47991;42.974;12.082;2023-09-19T01:05:14;13.30;;;5.30;;
62037;SDS011;47991;42.974;12.082;2023-09-19T01:07:42;10.60;;;4.60;;
62037;SDS011;47991;42.974;12.082;2023-09-19T01:10:11;11.40;;;4.70;;
62037;SDS011;47991;42.974;12.082;2023-09-19T01:18:16;10.90;;;4.80;;
62037;SDS011;47991;42.974;12.082;2023-09-19T01:26:26;10.30;;;5.40;;
62037;SDS011;47991;42.974;12.082;2023-09-19T01:32:01;11.40;;;5.60;;
62037;SDS011;47991;42.974;12.082;2023-09-19T01:34:50;8.20;;;4.60;;
62037;SDS011;47991;42.974;12.082;2023-09-19T01:37:30;10.40;;;5.40;;
62037;SDS011;47991;42.974;12.082;2023-09-19T01:39:58;12.10;;;5.20;;
62037;SDS011;47991;42.974;12.082;2023-09-19T01:42:43;10.20;;;5.00;;
62037;SDS011;47991;42.974;12.082;2023-09-19T01:48:05;13.00;;;5.40;;
62037;SDS011;47991;42.974;12.082;2023-09-19T01:56:05;9.20;;;5.10;;
62037;SDS011;47991;42.974;12.082;2023-09-19T01:58:44;11.10;;;5.20;;
62037;SDS011;47991;42.974;12.082;2023-09-19T02:01:16;9.80;;;5.20;;
62037;SDS011;47991;42.974;12.082;2023-09-19T02:03:47;11.10;;;5.00;;
62037;SDS011;47991;42.974;12.082;2023-09-19T02:08:45;11.50;;;5.30;;
62037;SDS011;47991;42.974;12.082;2023-09-19T02:11:13;10.80;;;5.10;;
62037;SDS011;47991;42.974;12.082;2023-09-19T02:13:40;10.70;;;4.90;;
62037;SDS011;47991;42.974;12.082;2023-09-19T02:16:08;15.70;;;6.00;;
62037;SDS011;47991;42.974;12.082;2023-09-19T02:18:37;12.20;;;5.40;;
62037;SDS011;47991;42.974;12.082;2023-09-19T02:21:05;9.40;;;5.10;;
62037;SDS011;47991;42.974;12.082;2023-09-19T02:23:38;14.70;;;5.80;;
62037;SDS011;47991;42.974;12.082;2023-09-19T02:26:05;11.70;;;5.60;;
62037;SDS011;47991;42.974;12.082;2023-09-19T02:28:32;15.30;;;6.00;;
62037;SDS011;47991;42.974;12.082;2023-09-19T02:31:00;11.90;;;5.50;;
62037;SDS011;47991;42.974;12.082;2023-09-19T02:33:28;10.70;;;5.30;;
62037;SDS011;47991;42.974;12.082;2023-09-19T02:35:59;11.60;;;5.70;;
62037;SDS011;47991;42.974;12.082;2023-09-19T02:38:26;14.10;;;5.80;;
62037;SDS011;47991;42.974;12.082;2023-09-19T02:40:53;11.90;;;5.70;;
62037;SDS011;47991;42.974;12.082;2023-09-19T02:43:21;12.00;;;5.70;;
62037;SDS011;47991;42.974;12.082;2023-09-19T02:45:49;15.40;;;5.90;;
62037;SDS011;47991;42.974;12.082;2023-09-19T02:48:16;11.10;;;6.20;;
62037;SDS011;47991;42.974;12.082;2023-09-19T02:50:45;11.90;;;6.20;;
62037;SDS011;47991;42.974;12.082;2023-09-19T02:53:12;11.20;;;6.20;;
62037;SDS011;47991;42.974;12.082;2023-09-19T02:55:40;10.90;;;5.80;;
62037;SDS011;47991;42.974;12.082;2023-09-19T02:58:07;13.60;;;6.50;;
62037;SDS011;47991;42.974;12.082;2023-09-19T03:00:37;12.10;;;6.60;;
62037;SDS011;47991;42.974;12.082;2023-09-19T03:03:04;14.50;;;6.50;;
62037;SDS011;47991;42.974;12.082;2023-09-19T03:05:34;16.40;;;6.80;;
62037;SDS011;47991;42.974;12.082;2023-09-19T03:08:01;12.20;;;6.60;;
62037;SDS011;47991;42.974;12.082;2023-09-19T03:10:29;12.70;;;7.10;;
62037;SDS011;47991;42.974;12.082;2023-09-19T03:12:57;17.50;;;6.60;;
62037;SDS011;47991;42.974;12.082;2023-09-19T03:15:28;15.00;;;7.20;;
62037;SDS011;47991;42.974;12.082;2023-09-19T03:17:55;11.10;;;6.30;;
62037;SDS011;47991;42.974;12.082;2023-09-19T03:20:24;14.50;;;7.30;;
62037;SDS011;47991;42.974;12.082;2023-09-19T03:22:51;13.30;;;7.30;;
62037;SDS011;47991;42.974;12.082;2023-09-19T03:25:18;13.50;;;6.70;;
62037;SDS011;47991;42.974;12.082;2023-09-19T03:27:45;15.00;;;7.30;;
62037;SDS011;47991;42.974;12.082;2023-09-19T03:30:13;15.20;;;7.30;;
62037;SDS011;47991;42.974;12.082;2023-09-19T03:32:43;14.10;;;7.40;;
62037;SDS011;47991;42.974;12.082;2023-09-19T03:35:12;18.20;;;7.30;;
62037;SDS011;47991;42.974;12.082;2023-09-19T03:37:40;14.20;;;7.60;;
62037;SDS011;47991;42.974;12.082;2023-09-19T03:40:11;17.90;;;7.50;;
62037;SDS011;47991;42.974;12.082;2023-09-19T03:42:38;16.00;;;7.70;;
62037;SDS011;47991;42.974;12.082;2023-09-19T03:45:09;15.00;;;7.70;;
62037;SDS011;47991;42.974;12.082;2023-09-19T03:47:39;16.20;;;7.80;;
62037;SDS011;47991;42.974;12.082;2023-09-19T03:50:06;13.80;;;7.40;;
62037;SDS011;47991;42.974;12.082;2023-09-19T03:52:34;15.60;;;7.10;;
62037;SDS011;47991;42.974;12.082;2023-09-19T03:55:01;13.90;;;7.50;;
62037;SDS011;47991;42.974;12.082;2023-09-19T03:57:31;13.50;;;6.80;;
62037;SDS011;47991;42.974;12.082;2023-09-19T03:59:58;13.60;;;7.10;;
62037;SDS011;47991;42.974;12.082;2023-09-19T04:02:25;15.80;;;7.10;;
62037;SDS011;47991;42.974;12.082;2023-09-19T04:04:51;13.30;;;7.20;;
62037;SDS011;47991;42.974;12.082;2023-09-19T04:07:18;16.50;;;7.20;;
62037;SDS011;47991;42.974;12.082;2023-09-19T04:09:48;13.10;;;7.10;;
62037;SDS011;47991;42.974;12.082;2023-09-19T04:12:15;15.40;;;7.20;;
62037;SDS011;47991;42.974;12.082;2023-09-19T04:14:45;14.10;;;7.90;;
62037;SDS011;47991;42.974;12.082;2023-09-19T04:17:12;15.30;;;7.70;;
62037;SDS011;47991;42.974;12.082;2023-09-19T04:19:39;14.30;;;8.00;;
62037;SDS011;47991;42.974;12.082;2023-09-19T04:22:07;13.70;;;7.60;;
62037;SDS011;47991;42.974;12.082;2023-09-19T04:24:34;18.50;;;7.60;;
62037;SDS011;47991;42.974;12.082;2023-09-19T04:27:00;14.40;;;7.80;;
62037;SDS011;47991;42.974;12.082;2023-09-19T04:29:28;18.60;;;8.10;;
62037;SDS011;47991;42.974;12.082;2023-09-19T04:31:56;16.10;;;7.20;;
62037;SDS011;47991;42.974;12.082;2023-09-19T04:36:53;15.30;;;7.20;;
62037;SDS011;47991;42.974;12.082;2023-09-19T04:39:20;17.50;;;7.60;;
62037;SDS011;47991;42.974;12.082;2023-09-19T04:41:47;19.80;;;8.00;;
62037;SDS011;47991;42.974;12.082;2023-09-19T04:44:14;12.90;;;7.30;;
62037;SDS011;47991;42.974;12.082;2023-09-19T04:46:42;13.10;;;7.40;;
62037;SDS011;47991;42.974;12.082;2023-09-19T04:49:09;18.60;;;7.80;;
62037;SDS011;47991;42.974;12.082;2023-09-19T04:51:35;14.60;;;7.80;;
62037;SDS011;47991;42.974;12.082;2023-09-19T04:54:02;15.70;;;8.10;;
62037;SDS011;47991;42.974;12.082;2023-09-19T04:56:29;18.10;;;8.20;;
62037;SDS011;47991;42.974;12.082;2023-09-19T04:58:57;16.20;;;7.90;;
62037;SDS011;47991;42.974;12.082;2023-09-19T05:01:24;15.30;;;7.70;;
62037;SDS011;47991;42.974;12.082;2023-09-19T05:03:52;13.50;;;7.10;;
62037;SDS011;47991;42.974;12.082;2023-09-19T05:06:19;16.30;;;7.80;;
62037;SDS011;47991;42.974;12.082;2023-09-19T05:08:49;16.00;;;7.20;;
62037;SDS011;47991;42.974;12.082;2023-09-19T05:11:19;14.60;;;7.00;;
62037;SDS011;47991;42.974;12.082;2023-09-19T05:13:49;14.20;;;6.90;;
62037;SDS011;47991;42.974;12.082;2023-09-19T05:18:46;14.90;;;6.90;;
62037;SDS011;47991;42.974;12.082;2023-09-19T05:21:13;15.10;;;6.60;;
62037;SDS011;47991;42.974;12.082;2023-09-19T05:23:40;13.00;;;6.80;;
62037;SDS011;47991;42.974;12.082;2023-09-19T05:26:07;14.30;;;7.00;;
62037;SDS011;47991;42.974;12.082;2023-09-19T05:28:34;15.60;;;7.20;;
62037;SDS011;47991;42.974;12.082;2023-09-19T05:31:01;16.30;;;7.40;;
62037;SDS011;47991;42.974;12.082;2023-09-19T05:33:31;12.30;;;7.10;;
62037;SDS011;47991;42.974;12.082;2023-09-19T05:35:58;11.70;;;7.00;;
62037;SDS011;47991;42.974;12.082;2023-09-19T05:38:25;12.70;;;7.20;;
62037;SDS011;47991;42.974;12.082;2023-09-19T05:40:53;19.40;;;7.80;;
62037;SDS011;47991;42.974;12.082;2023-09-19T05:43:20;14.50;;;7.40;;
62037;SDS011;47991;42.974;12.082;2023-09-19T05:45:47;16.60;;;7.80;;
62037;SDS011;47991;42.974;12.082;2023-09-19T05:48:14;13.80;;;7.50;;
62037;SDS011;47991;42.974;12.082;2023-09-19T05:50:42;13.20;;;7.00;;
62037;SDS011;47991;42.974;12.082;2023-09-19T05:53:11;12.80;;;7.20;;
62037;SDS011;47991;42.974;12.082;2023-09-19T05:55:40;13.10;;;6.90;;
62037;SDS011;47991;42.974;12.082;2023-09-19T05:58:08;12.50;;;7.10;;
62037;SDS011;47991;42.974;12.082;2023-09-19T06:00:36;14.70;;;7.10;;
62037;SDS011;47991;42.974;12.082;2023-09-19T06:03:03;12.10;;;6.60;;
62037;SDS011;47991;42.974;12.082;2023-09-19T06:05:30;13.30;;;6.80;;
62037;SDS011;47991;42.974;12.082;2023-09-19T06:07:57;13.90;;;6.50;;
62037;SDS011;47991;42.974;12.082;2023-09-19T06:10:26;17.60;;;7.10;;
62037;SDS011;47991;42.974;12.082;2023-09-19T06:12:54;14.40;;;7.00;;
62037;SDS011;47991;42.974;12.082;2023-09-19T06:15:24;15.60;;;6.80;;
62037;SDS011;47991;42.974;12.082;2023-09-19T06:17:53;15.90;;;7.10;;
62037;SDS011;47991;42.974;12.082;2023-09-19T06:20:24;13.20;;;6.50;;
62037;SDS011;47991;42.974;12.082;2023-09-19T06:22:52;16.80;;;6.80;;
62037;SDS011;47991;42.974;12.082;2023-09-19T06:25:20;12.40;;;6.70;;
62037;SDS011;47991;42.974;12.082;2023-09-19T06:27:49;14.70;;;7.30;;
62037;SDS011;47991;42.974;12.082;2023-09-19T06:32:46;15.70;;;7.20;;
62037;SDS011;47991;42.974;12.082;2023-09-19T06:35:14;13.80;;;7.60;;
62037;SDS011;47991;42.974;12.082;2023-09-19T06:37:43;14.20;;;7.30;;
62037;SDS011;47991;42.974;12.082;2023-09-19T06:40:10;14.30;;;6.90;;
62037;SDS011;47991;42.974;12.082;2023-09-19T06:42:45;11.80;;;6.80;;
62037;SDS011;47991;42.974;12.082;2023-09-19T06:45:16;14.40;;;6.60;;
62037;SDS011;47991;42.974;12.082;2023-09-19T06:47:46;13.30;;;7.20;;
62037;SDS011;47991;42.974;12.082;2023-09-19T06:50:17;14.40;;;7.20;;
62037;SDS011;47991;42.974;12.082;2023-09-19T06:52:46;17.40;;;7.80;;
62037;SDS011;47991;42.974;12.082;2023-09-19T06:55:17;13.00;;;7.70;;
62037;SDS011;47991;42.974;12.082;2023-09-19T06:57:48;13.60;;;6.30;;
62037;SDS011;47991;42.974;12.082;2023-09-19T07:00:16;12.40;;;6.10;;
62037;SDS011;47991;42.974;12.082;2023-09-19T07:02:58;14.70;;;6.50;;
62037;SDS011;47991;42.974;12.082;2023-09-19T07:05:28;16.40;;;7.40;;
62037;SDS011;47991;42.974;12.082;2023-09-19T07:07:55;13.80;;;6.30;;
62037;SDS011;47991;42.974;12.082;2023-09-19T07:10:22;15.10;;;6.40;;
62037;SDS011;47991;42.974;12.082;2023-09-19T07:12:57;11.40;;;6.30;;
62037;SDS011;47991;42.974;12.082;2023-09-19T07:15:25;14.00;;;6.30;;
62037;SDS011;47991;42.974;12.082;2023-09-19T07:17:53;12.60;;;6.70;;
62037;SDS011;47991;42.974;12.082;2023-09-19T07:20:23;16.30;;;6.50;;
62037;SDS011;47991;42.974;12.082;2023-09-19T07:22:53;13.00;;;6.40;;
62037;SDS011;47991;42.974;12.082;2023-09-19T07:25:24;17.60;;;7.10;;
62037;SDS011;47991;42.974;12.082;2023-09-19T07:27:51;13.20;;;5.80;;
62037;SDS011;47991;42.974;12.082;2023-09-19T07:30:17;14.00;;;6.40;;
62037;SDS011;47991;42.974;12.082;2023-09-19T07:32:44;15.50;;;6.80;;
62037;SDS011;47991;42.974;12.082;2023-09-19T07:35:11;16.30;;;6.90;;
62037;SDS011;47991;42.974;12.082;2023-09-19T07:37:38;13.50;;;6.80;;
62037;SDS011;47991;42.974;12.082;2023-09-19T07:40:05;12.90;;;6.50;;
62037;SDS011;47991;42.974;12.082;2023-09-19T07:42:36;12.30;;;6.10;;
62037;SDS011;47991;42.974;12.082;2023-09-19T07:45:05;12.50;;;6.80;;
62037;SDS011;47991;42.974;12.082;2023-09-19T07:47:34;10.00;;;5.70;;
62037;SDS011;47991;42.974;12.082;2023-09-19T07:50:02;18.40;;;6.70;;
62037;SDS011;47991;42.974;12.082;2023-09-19T07:52:30;14.90;;;6.50;;
62037;SDS011;47991;42.974;12.082;2023-09-19T07:55:00;18.50;;;6.70;;
62037;SDS011;47991;42.974;12.082;2023-09-19T07:57:27;13.80;;;6.30;;
62037;SDS011;47991;42.974;12.082;2023-09-19T07:59:55;14.10;;;6.60;;
62037;SDS011;47991;42.974;12.082;2023-09-19T08:02:22;15.00;;;6.70;;
62037;SDS011;47991;42.974;12.082;2023-09-19T08:04:49;18.20;;;6.60;;
62037;SDS011;47991;42.974;12.082;2023-09-19T08:07:18;11.00;;;5.20;;
62037;SDS011;47991;42.974;12.082;2023-09-19T08:09:45;17.10;;;6.60;;
62037;SDS011;47991;42.974;12.082;2023-09-19T08:12:15;14.90;;;6.80;;
62037;SDS011;47991;42.974;12.082;2023-09-19T08:14:43;17.20;;;6.10;;
62037;SDS011;47991;42.974;12.082;2023-09-19T08:17:10;17.80;;;6.80;;
62037;SDS011;47991;42.974;12.082;2023-09-19T08:19:37;16.20;;;6.20;;
62037;SDS011;47991;42.974;12.082;2023-09-19T08:22:07;16.20;;;6.50;;
62037;SDS011;47991;42.974;12.082;2023-09-19T08:24:36;16.50;;;6.30;;
62037;SDS011;47991;42.974;12.082;2023-09-19T08:27:03;12.90;;;5.90;;
62037;SDS011;47991;42.974;12.082;2023-09-19T08:29:32;18.60;;;6.50;;
62037;SDS011;47991;42.974;12.082;2023-09-19T08:31:59;16.10;;;5.90;;
62037;SDS011;47991;42.974;12.082;2023-09-19T08:34:26;15.10;;;6.40;;
62037;SDS011;47991;42.974;12.082;2023-09-19T08:36:53;16.50;;;6.20;;
62037;SDS011;47991;42.974;12.082;2023-09-19T08:39:24;13.30;;;6.40;;
62037;SDS011;47991;42.974;12.082;2023-09-19T08:41:58;15.70;;;5.80;;
62037;SDS011;47991;42.974;12.082;2023-09-19T08:44:28;12.20;;;6.20;;
62037;SDS011;47991;42.974;12.082;2023-09-19T08:47:01;13.40;;;5.50;;
62037;SDS011;47991;42.974;12.082;2023-09-19T08:49:48;17.60;;;5.80;;
62037;SDS011;47991;42.974;12.082;2023-09-19T08:52:48;15.50;;;5.90;;
62037;SDS011;47991;42.974;12.082;2023-09-19T08:55:20;15.10;;;5.20;;
62037;SDS011;47991;42.974;12.082;2023-09-19T08:57:50;13.30;;;6.00;;
62037;SDS011;47991;42.974;12.082;2023-09-19T09:00:26;15.10;;;5.60;;
62037;SDS011;47991;42.974;12.082;2023-09-19T09:02:54;13.70;;;5.60;;
62037;SDS011;47991;42.974;12.082;2023-09-19T09:05:23;16.80;;;5.80;;
62037;SDS011;47991;42.974;12.082;2023-09-19T09:07:51;14.60;;;6.10;;
62037;SDS011;47991;42.974;12.082;2023-09-19T09:10:19;19.80;;;7.10;;
62037;SDS011;47991;42.974;12.082;2023-09-19T09:15:21;16.00;;;5.60;;
62037;SDS011;47991;42.974;12.082;2023-09-19T09:17:50;14.10;;;5.70;;
62037;SDS011;47991;42.974;12.082;2023-09-19T09:20:19;12.70;;;6.00;;
62037;SDS011;47991;42.974;12.082;2023-09-19T09:22:53;13.70;;;5.80;;
62037;SDS011;47991;42.974;12.082;2023-09-19T09:25:22;16.40;;;5.50;;
62037;SDS011;47991;42.974;12.082;2023-09-19T09:28:01;14.00;;;6.20;;
62037;SDS011;47991;42.974;12.082;2023-09-19T09:30:32;15.30;;;5.70;;
62037;SDS011;47991;42.974;12.082;2023-09-19T09:33:12;12.40;;;5.30;;
62037;SDS011;47991;42.974;12.082;2023-09-19T09:35:50;18.60;;;6.60;;
62037;SDS011;47991;42.974;12.082;2023-09-19T09:38:19;14.10;;;5.50;;
62037;SDS011;47991;42.974;12.082;2023-09-19T09:40:48;15.90;;;6.20;;
62037;SDS011;47991;42.974;12.082;2023-09-19T09:46:10;14.70;;;6.10;;
62037;SDS011;47991;42.974;12.082;2023-09-19T09:49:01;15.20;;;6.10;;
62037;SDS011;47991;42.974;12.082;2023-09-19T09:51:48;17.70;;;5.70;;
62037;SDS011;47991;42.974;12.082;2023-09-19T09:54:26;18.70;;;5.50;;
62037;SDS011;47991;42.974;12.082;2023-09-19T09:57:06;14.40;;;5.20;;
62037;SDS011;47991;42.974;12.082;2023-09-19T09:59:49;19.30;;;6.20;;
62037;SDS011;47991;42.974;12.082;2023-09-19T10:04:51;11.50;;;5.30;;
62037;SDS011;47991;42.974;12.082;2023-09-19T10:07:29;12.70;;;4.90;;
62037;SDS011;47991;42.974;12.082;2023-09-19T10:10:28;14.20;;;5.20;;
62037;SDS011;47991;42.974;12.082;2023-09-19T10:13:08;18.50;;;6.00;;
62037;SDS011;47991;42.974;12.082;2023-09-19T10:15:43;15.00;;;5.40;;
62037;SDS011;47991;42.974;12.082;2023-09-19T10:18:22;13.70;;;5.00;;
62037;SDS011;47991;42.974;12.082;2023-09-19T10:20:50;14.40;;;4.90;;
62037;SDS011;47991;42.974;12.082;2023-09-19T10:23:19;14.30;;;5.40;;
62037;SDS011;47991;42.974;12.082;2023-09-19T10:25:49;13.80;;;4.90;;
62037;SDS011;47991;42.974;12.082;2023-09-19T10:28:18;17.70;;;5.40;;
62037;SDS011;47991;42.974;12.082;2023-09-19T10:30:49;12.30;;;5.00;;
62037;SDS011;47991;42.974;12.082;2023-09-19T10:33:24;15.50;;;5.20;;
62037;SDS011;47991;42.974;12.082;2023-09-19T10:35:58;19.40;;;5.20;;
62037;SDS011;47991;42.974;12.082;2023-09-19T10:38:26;10.70;;;4.60;;
62037;SDS011;47991;42.974;12.082;2023-09-19T10:40:56;13.30;;;4.90;;
62037;SDS011;47991;42.974;12.082;2023-09-19T10:43:29;13.90;;;5.10;;
62037;SDS011;47991;42.974;12.082;2023-09-19T10:46:06;13.00;;;4.80;;
62037;SDS011;47991;42.974;12.082;2023-09-19T10:48:36;12.00;;;4.20;;
62037;SDS011;47991;42.974;12.082;2023-09-19T10:56:43;16.70;;;4.60;;
62037;SDS011;47991;42.974;12.082;2023-09-19T10:59:15;12.60;;;4.70;;
62037;SDS011;47991;42.974;12.082;2023-09-19T11:04:32;15.60;;;4.60;;
62037;SDS011;47991;42.974;12.082;2023-09-19T11:07:05;12.00;;;4.40;;
62037;SDS011;47991;42.974;12.082;2023-09-19T11:09:44;10.70;;;4.20;;
62037;SDS011;47991;42.974;12.082;2023-09-19T11:15:07;12.50;;;4.20;;
62037;SDS011;47991;42.974;12.082;2023-09-19T11:30:40;13.10;;;4.40;;
62037;SDS011;47991;42.974;12.082;2023-09-19T11:33:22;13.80;;;4.40;;
62037;SDS011;47991;42.974;12.082;2023-09-19T11:36:06;11.70;;;4.70;;
62037;SDS011;47991;42.974;12.082;2023-09-19T11:43:53;11.70;;;4.50;;
62037;SDS011;47991;42.974;12.082;2023-09-19T11:46:27;15.20;;;4.50;;
62037;SDS011;47991;42.974;12.082;2023-09-19T11:51:40;15.50;;;4.50;;
62037;SDS011;47991;42.974;12.082;2023-09-19T11:54:10;10.30;;;3.90;;
62037;SDS011;47991;42.974;12.082;2023-09-19T11:56:45;13.20;;;4.20;;
62037;SDS011;47991;42.974;12.082;2023-09-19T11:59:26;11.50;;;4.30;;
62037;SDS011;47991;42.974;12.082;2023-09-19T12:04:34;10.80;;;4.00;;
62037;SDS011;47991;42.974;12.082;2023-09-19T12:07:06;12.10;;;3.80;;
62037;SDS011;47991;42.974;12.082;2023-09-19T12:09:40;12.00;;;4.70;;
62037;SDS011;47991;42.974;12.082;2023-09-19T12:12:20;22.10;;;4.60;;
62037;SDS011;47991;42.974;12.082;2023-09-19T12:14:49;9.90;;;3.60;;
62037;SDS011;47991;42.974;12.082;2023-09-19T12:17:17;14.50;;;3.80;;
62037;SDS011;47991;42.974;12.082;2023-09-19T12:19:55;10.20;;;3.30;;
62037;SDS011;47991;42.974;12.082;2023-09-19T12:22:23;9.10;;;3.60;;
62037;SDS011;47991;42.974;12.082;2023-09-19T12:24:51;6.80;;;2.90;;
62037;SDS011;47991;42.974;12.082;2023-09-19T12:27:20;11.50;;;4.20;;
62037;SDS011;47991;42.974;12.082;2023-09-19T12:29:49;11.60;;;3.70;;
62037;SDS011;47991;42.974;12.082;2023-09-19T12:32:16;11.80;;;4.20;;
62037;SDS011;47991;42.974;12.082;2023-09-19T12:34:52;9.80;;;3.40;;
62037;SDS011;47991;42.974;12.082;2023-09-19T12:37:21;8.40;;;3.80;;
62037;SDS011;47991;42.974;12.082;2023-09-19T12:40:05;10.60;;;3.80;;
62037;SDS011;47991;42.974;12.082;2023-09-19T12:42:49;11.10;;;3.70;;
62037;SDS011;47991;42.974;12.082;2023-09-19T12:45:17;10.60;;;3.30;;
62037;SDS011;47991;42.974;12.082;2023-09-19T12:51:04;13.10;;;3.90;;
62037;SDS011;47991;42.974;12.082;2023-09-19T12:53:35;10.20;;;3.60;;
62037;SDS011;47991;42.974;12.082;2023-09-19T12:56:11;12.00;;;3.60;;
62037;SDS011;47991;42.974;12.082;2023-09-19T13:01:22;9.90;;;3.70;;
62037;SDS011;47991;42.974;12.082;2023-09-19T13:06:46;12.40;;;3.90;;
62037;SDS011;47991;42.974;12.082;2023-09-19T13:09:15;13.00;;;3.80;;
62037;SDS011;47991;42.974;12.082;2023-09-19T13:11:44;11.30;;;3.20;;
62037;SDS011;47991;42.974;12.082;2023-09-19T13:14:17;8.90;;;3.20;;
62037;SDS011;47991;42.974;12.082;2023-09-19T13:16:52;10.90;;;3.40;;
62037;SDS011;47991;42.974;12.082;2023-09-19T13:19:40;8.20;;;3.40;;
62037;SDS011;47991;42.974;12.082;2023-09-19T13:25:16;9.10;;;3.00;;
62037;SDS011;47991;42.974;12.082;2023-09-19T13:27:54;11.10;;;3.50;;
62037;SDS011;47991;42.974;12.082;2023-09-19T13:30:23;9.40;;;3.50;;
62037;SDS011;47991;42.974;12.082;2023-09-19T13:32:52;12.20;;;4.00;;
62037;SDS011;47991;42.974;12.082;2023-09-19T13:35:33;8.30;;;3.30;;
62037;SDS011;47991;42.974;12.082;2023-09-19T13:38:00;7.80;;;3.00;;
62037;SDS011;47991;42.974;12.082;2023-09-19T13:40:27;7.80;;;3.20;;
62037;SDS011;47991;42.974;12.082;2023-09-19T13:43:01;35.30;;;4.70;;
62037;SDS011;47991;42.974;12.082;2023-09-19T13:45:28;10.60;;;3.50;;
62037;SDS011;47991;42.974;12.082;2023-09-19T13:47:56;11.50;;;3.80;;
62037;SDS011;47991;42.974;12.082;2023-09-19T13:50:25;8.90;;;3.50;;
62037;SDS011;47991;42.974;12.082;2023-09-19T13:52:53;10.00;;;3.20;;
62037;SDS011;47991;42.974;12.082;2023-09-19T13:55:20;8.50;;;3.10;;
62037;SDS011;47991;42.974;12.082;2023-09-19T13:57:47;7.50;;;3.30;;
62037;SDS011;47991;42.974;12.082;2023-09-19T14:00:21;8.30;;;3.30;;
62037;SDS011;47991;42.974;12.082;2023-09-19T14:02:49;8.90;;;3.30;;
62037;SDS011;47991;42.974;12.082;2023-09-19T14:05:17;9.30;;;3.30;;
62037;SDS011;47991;42.974;12.082;2023-09-19T14:07:45;11.50;;;3.40;;
62037;SDS011;47991;42.974;12.082;2023-09-19T14:10:12;8.20;;;3.10;;
62037;SDS011;47991;42.974;12.082;2023-09-19T14:12:39;10.00;;;3.50;;
62037;SDS011;47991;42.974;12.082;2023-09-19T14:15:10;10.90;;;3.50;;
62037;SDS011;47991;42.974;12.082;2023-09-19T14:17:37;10.70;;;3.30;;
62037;SDS011;47991;42.974;12.082;2023-09-19T14:20:08;12.70;;;3.30;;
62037;SDS011;47991;42.974;12.082;2023-09-19T14:22:36;10.30;;;3.20;;
62037;SDS011;47991;42.974;12.082;2023-09-19T14:25:04;7.80;;;3.30;;
62037;SDS011;47991;42.974;12.082;2023-09-19T14:27:31;8.70;;;2.90;;
62037;SDS011;47991;42.974;12.082;2023-09-19T14:29:58;8.70;;;2.80;;
62037;SDS011;47991;42.974;12.082;2023-09-19T14:32:25;9.30;;;3.20;;
62037;SDS011;47991;42.974;12.082;2023-09-19T14:34:52;8.20;;;2.70;;
62037;SDS011;47991;42.974;12.082;2023-09-19T14:37:19;12.20;;;3.60;;
62037;SDS011;47991;42.974;12.082;2023-09-19T14:39:48;6.90;;;2.90;;
62037;SDS011;47991;42.974;12.082;2023-09-19T14:42:15;14.90;;;3.20;;
62037;SDS011;47991;42.974;12.082;2023-09-19T14:44:44;9.20;;;2.90;;
62037;SDS011;47991;42.974;12.082;2023-09-19T14:47:11;8.00;;;2.70;;
62037;SDS011;47991;42.974;12.082;2023-09-19T14:49:40;5.10;;;2.40;;
62037;SDS011;47991;42.974;12.082;2023-09-19T14:52:07;5.60;;;2.30;;
62037;SDS011;47991;42.974;12.082;2023-09-19T14:54:36;7.30;;;2.40;;
62037;SDS011;47991;42.974;12.082;2023-09-19T14:57:07;5.40;;;2.30;;
62037;SDS011;47991;42.974;12.082;2023-09-19T14:59:35;7.10;;;2.60;;
62037;SDS011;47991;42.974;12.082;2023-09-19T15:02:05;7.00;;;2.40;;
62037;SDS011;47991;42.974;12.082;2023-09-19T15:04:33;11.00;;;2.50;;
62037;SDS011;47991;42.974;12.082;2023-09-19T15:07:00;7.10;;;2.40;;
62037;SDS011;47991;42.974;12.082;2023-09-19T15:09:28;8.00;;;2.40;;
62037;SDS011;47991;42.974;12.082;2023-09-19T15:11:56;6.20;;;2.10;;
62037;SDS011;47991;42.974;12.082;2023-09-19T15:14:23;15.60;;;2.40;;
62037;SDS011;47991;42.974;12.082;2023-09-19T15:16:51;6.90;;;2.20;;
62037;SDS011;47991;42.974;12.082;2023-09-19T15:19:18;7.20;;;2.50;;
62037;SDS011;47991;42.974;12.082;2023-09-19T15:21:45;7.30;;;2.10;;
62037;SDS011;47991;42.974;12.082;2023-09-19T15:24:12;11.10;;;2.40;;
62037;SDS011;47991;42.974;12.082;2023-09-19T15:26:39;7.50;;;2.20;;
62037;SDS011;47991;42.974;12.082;2023-09-19T15:29:07;9.90;;;2.50;;
62037;SDS011;47991;42.974;12.082;2023-09-19T15:31:37;6.00;;;2.50;;
62037;SDS011;47991;42.974;12.082;2023-09-19T15:34:04;4.60;;;2.10;;
62037;SDS011;47991;42.974;12.082;2023-09-19T15:39:04;8.20;;;2.50;;
62037;SDS011;47991;42.974;12.082;2023-09-19T15:41:37;7.40;;;2.60;;
62037;SDS011;47991;42.974;12.082;2023-09-19T15:44:13;9.40;;;2.50;;
62037;SDS011;47991;42.974;12.082;2023-09-19T15:46:42;9.10;;;3.10;;
62037;SDS011;47991;42.974;12.082;2023-09-19T15:49:10;8.40;;;3.30;;
62037;SDS011;47991;42.974;12.082;2023-09-19T15:51:38;11.60;;;3.20;;
62037;SDS011;47991;42.974;12.082;2023-09-19T15:54:07;10.60;;;3.10;;
62037;SDS011;47991;42.974;12.082;2023-09-19T15:56:40;10.00;;;3.40;;
62037;SDS011;47991;42.974;12.082;2023-09-19T15:59:11;9.40;;;3.70;;
62037;SDS011;47991;42.974;12.082;2023-09-19T16:01:39;8.70;;;3.20;;
62037;SDS011;47991;42.974;12.082;2023-09-19T16:04:07;8.70;;;3.20;;
62037;SDS011;47991;42.974;12.082;2023-09-19T16:06:38;7.50;;;3.00;;
62037;SDS011;47991;42.974;12.082;2023-09-19T16:09:05;10.80;;;3.20;;